sensor_id;sensor_type;location;lat;lon;timestamp;pressure;altitude;pressure_sealevel;temperature;humidity
45523;BME280;31254;51.680;5.394;2023-04-08T00:02:14;102263.44;;;9.08;91.35
45523;BME280;31254;51.680;5.394;2023-04-08T00:04:41;102290.59;;;9.22;91.50
45523;BME280;31254;51.680;5.394;2023-04-08T00:07:11;102209.56;;;8.73;91.63
45523;BME280;31254;51.680;5.394;2023-04-08T00:09:37;102291.34;;;9.24;91.28
45523;BME280;31254;51.680;5.394;2023-04-08T00:12:07;102263.31;;;9.09;91.38
45523;BME280;31254;51.680;5.394;2023-04-08T00:14:34;102292.00;;;9.28;91.73
45523;BME280;31254;51.680;5.394;2023-04-08T00:17:03;102283.06;;;9.26;91.96
45523;BME280;31254;51.680;5.394;2023-04-08T00:19:33;102270.75;;;9.20;91.82
45523;BME280;31254;51.680;5.394;2023-04-08T00:22:04;102251.69;;;9.07;91.96
45523;BME280;31254;51.680;5.394;2023-04-08T00:24:30;102276.09;;;9.22;91.60
45523;BME280;31254;51.680;5.394;2023-04-08T00:27:00;102289.38;;;9.26;92.10
45523;BME280;31254;51.680;5.394;2023-04-08T00:29:28;102288.50;;;9.26;92.29
45523;BME280;31254;51.680;5.394;2023-04-08T00:31:55;102275.41;;;9.18;91.97
45523;BME280;31254;51.680;5.394;2023-04-08T00:34:22;102275.41;;;9.18;92.47
45523;BME280;31254;51.680;5.394;2023-04-08T00:36:54;102278.38;;;9.28;92.32
45523;BME280;31254;51.680;5.394;2023-04-08T00:39:24;102287.44;;;9.28;92.55
45523;BME280;31254;51.680;5.394;2023-04-08T00:41:51;102277.81;;;9.23;92.43
45523;BME280;31254;51.680;5.394;2023-04-08T00:44:18;102283.06;;;9.26;92.31
45523;BME280;31254;51.680;5.394;2023-04-08T00:46:47;102287.44;;;9.28;92.88
45523;BME280;31254;51.680;5.394;2023-04-08T00:49:14;102285.56;;;9.29;92.89
45523;BME280;31254;51.680;5.394;2023-04-08T00:51:43;102281.44;;;9.23;92.86
45523;BME280;31254;51.680;5.394;2023-04-08T00:54:10;102293.75;;;9.29;92.56
45523;BME280;31254;51.680;5.394;2023-04-08T00:56:37;102291.88;;;9.29;93.02
45523;BME280;31254;51.680;5.394;2023-04-08T00:59:04;102275.31;;;9.20;93.31
45523;BME280;31254;51.680;5.394;2023-04-08T01:04:26;102294.59;;;9.29;92.93
45523;BME280;31254;51.680;5.394;2023-04-08T01:07:40;102297.22;;;9.31;93.03
45523;BME280;31254;51.680;5.394;2023-04-08T01:12:40;102280.56;;;9.23;93.59
45523;BME280;31254;51.680;5.394;2023-04-08T01:15:10;102292.00;;;9.28;93.09
45523;BME280;31254;51.680;5.394;2023-04-08T01:17:39;102291.78;;;9.31;93.61
45523;BME280;31254;51.680;5.394;2023-04-08T01:20:07;102298.00;;;9.33;93.15
45523;BME280;31254;51.680;5.394;2023-04-08T01:25:34;102295.59;;;9.28;93.33
45523;BME280;31254;51.680;5.394;2023-04-08T01:28:06;102300.63;;;9.22;93.17
45523;BME280;31254;51.680;5.394;2023-04-08T01:30:37;102128.00;;;8.18;93.09
45523;BME280;31254;51.680;5.394;2023-04-08T01:33:06;102279.88;;;9.06;93.35
45523;BME280;31254;51.680;5.394;2023-04-08T01:35:36;102297.31;;;9.17;93.63
45523;BME280;31254;51.680;5.394;2023-04-08T01:38:06;102309.19;;;9.15;93.44
45523;BME280;31254;51.680;5.394;2023-04-08T01:40:38;102306.56;;;9.14;93.37
45523;BME280;31254;51.680;5.394;2023-04-08T01:43:08;102305.69;;;9.13;93.34
45523;BME280;31254;51.680;5.394;2023-04-08T01:45:37;102296.00;;;9.09;93.67
45523;BME280;31254;51.680;5.394;2023-04-08T01:48:04;102294.56;;;9.04;93.88
45523;BME280;31254;51.680;5.394;2023-04-08T01:50:35;102297.28;;;9.04;93.42
45523;BME280;31254;51.680;5.394;2023-04-08T01:53:04;102311.47;;;9.09;93.97
45523;BME280;31254;51.680;5.394;2023-04-08T01:55:34;102302.06;;;9.00;93.85
45523;BME280;31254;51.680;5.394;2023-04-08T01:58:04;102184.84;;;8.36;94.34
45523;BME280;31254;51.680;5.394;2023-04-08T02:00:35;102281.91;;;8.90;94.58
45523;BME280;31254;51.680;5.394;2023-04-08T02:03:05;102291.06;;;9.02;94.29
45523;BME280;31254;51.680;5.394;2023-04-08T02:05:33;102309.81;;;9.06;94.24
45523;BME280;31254;51.680;5.394;2023-04-08T02:08:00;102299.22;;;9.02;94.72
45523;BME280;31254;51.680;5.394;2023-04-08T02:10:30;102310.88;;;9.04;94.66
45523;BME280;31254;51.680;5.394;2023-04-08T02:12:56;102314.69;;;9.01;94.64
45523;BME280;31254;51.680;5.394;2023-04-08T02:15:25;102307.59;;;8.99;95.32
45523;BME280;31254;51.680;5.394;2023-04-08T02:18:04;102303.47;;;8.93;95.06
45523;BME280;31254;51.680;5.394;2023-04-08T02:20:42;102319.59;;;8.96;95.29
45523;BME280;31254;51.680;5.394;2023-04-08T02:23:13;102286.22;;;8.80;95.51
45523;BME280;31254;51.680;5.394;2023-04-08T02:25:44;102270.91;;;8.64;95.41
45523;BME280;31254;51.680;5.394;2023-04-08T02:28:13;102313.78;;;8.88;95.79
45523;BME280;31254;51.680;5.394;2023-04-08T02:30:42;102305.16;;;8.81;95.90
45523;BME280;31254;51.680;5.394;2023-04-08T02:33:10;102320.59;;;8.81;95.72
45523;BME280;31254;51.680;5.394;2023-04-08T02:35:40;102313.75;;;8.75;95.97
45523;BME280;31254;51.680;5.394;2023-04-08T02:38:08;102318.50;;;8.71;95.98
45523;BME280;31254;51.680;5.394;2023-04-08T02:40:36;102316.50;;;8.60;96.10
45523;BME280;31254;51.680;5.394;2023-04-08T02:43:03;102307.28;;;8.49;96.04
45523;BME280;31254;51.680;5.394;2023-04-08T02:45:32;102312.63;;;8.50;96.17
45523;BME280;31254;51.680;5.394;2023-04-08T02:48:03;102288.09;;;8.23;96.74
45523;BME280;31254;51.680;5.394;2023-04-08T02:50:32;102321.66;;;8.36;97.27
45523;BME280;31254;51.680;5.394;2023-04-08T02:53:01;102315.38;;;8.21;97.42
45523;BME280;31254;51.680;5.394;2023-04-08T02:55:28;102324.59;;;8.19;97.45
45523;BME280;31254;51.680;5.394;2023-04-08T02:57:55;102333.63;;;8.19;97.68
45523;BME280;31254;51.680;5.394;2023-04-08T03:00:22;102346.16;;;8.22;97.62
45523;BME280;31254;51.680;5.394;2023-04-08T03:02:49;102318.00;;;8.09;97.49
45523;BME280;31254;51.680;5.394;2023-04-08T03:05:16;102319.53;;;8.13;97.73
45523;BME280;31254;51.680;5.394;2023-04-08T03:07:45;102332.66;;;8.20;97.23
45523;BME280;31254;51.680;5.394;2023-04-08T03:10:13;102334.31;;;8.23;97.47
45523;BME280;31254;51.680;5.394;2023-04-08T03:12:39;102344.19;;;8.24;96.92
45523;BME280;31254;51.680;5.394;2023-04-08T03:15:07;102338.97;;;8.21;97.10
45523;BME280;31254;51.680;5.394;2023-04-08T03:17:36;102325.97;;;8.12;96.94
45523;BME280;31254;51.680;5.394;2023-04-08T03:20:04;102340.25;;;8.15;97.36
45523;BME280;31254;51.680;5.394;2023-04-08T03:22:32;102332.94;;;8.16;97.09
45523;BME280;31254;51.680;5.394;2023-04-08T03:24:59;102330.41;;;8.13;97.25
45523;BME280;31254;51.680;5.394;2023-04-08T03:27:26;102346.34;;;8.19;96.88
45523;BME280;31254;51.680;5.394;2023-04-08T03:29:58;102336.75;;;8.13;97.01
45523;BME280;31254;51.680;5.394;2023-04-08T03:32:24;102337.53;;;8.15;96.57
45523;BME280;31254;51.680;5.394;2023-04-08T03:34:54;102343.06;;;8.14;96.60
45523;BME280;31254;51.680;5.394;2023-04-08T03:37:21;102346.53;;;8.16;96.16
45523;BME280;31254;51.680;5.394;2023-04-08T03:39:48;102296.19;;;7.81;96.57
45523;BME280;31254;51.680;5.394;2023-04-08T03:42:15;102337.81;;;8.11;96.44
45523;BME280;31254;51.680;5.394;2023-04-08T03:44:42;102345.09;;;8.10;96.51
45523;BME280;31254;51.680;5.394;2023-04-08T03:47:11;102322.38;;;7.97;96.91
45523;BME280;31254;51.680;5.394;2023-04-08T03:49:40;102345.09;;;8.10;96.63
45523;BME280;31254;51.680;5.394;2023-04-08T03:52:07;102348.97;;;8.06;96.41
45523;BME280;31254;51.680;5.394;2023-04-08T03:54:34;102335.84;;;7.98;97.04
45523;BME280;31254;51.680;5.394;2023-04-08T03:57:01;102312.28;;;7.84;96.83
45523;BME280;31254;51.680;5.394;2023-04-08T03:59:30;102344.72;;;8.02;96.92
45523;BME280;31254;51.680;5.394;2023-04-08T04:01:59;102355.16;;;8.08;97.15
45523;BME280;31254;51.680;5.394;2023-04-08T04:04:26;102357.22;;;8.04;96.71
45523;BME280;31254;51.680;5.394;2023-04-08T04:06:53;102359.94;;;8.04;96.85
45523;BME280;31254;51.680;5.394;2023-04-08T04:09:20;102358.41;;;8.00;96.88
45523;BME280;31254;51.680;5.394;2023-04-08T04:11:46;102354.69;;;8.01;96.74
45523;BME280;31254;51.680;5.394;2023-04-08T04:14:13;102348.88;;;7.93;96.77
45523;BME280;31254;51.680;5.394;2023-04-08T04:16:40;102357.50;;;8.00;97.25
45523;BME280;31254;51.680;5.394;2023-04-08T04:19:09;102342.84;;;7.88;96.75
45523;BME280;31254;51.680;5.394;2023-04-08T04:21:38;102258.88;;;7.26;96.54
45523;BME280;31254;51.680;5.394;2023-04-08T04:24:05;102346.94;;;7.81;96.57
45523;BME280;31254;51.680;5.394;2023-04-08T04:26:32;102327.81;;;7.68;96.75
45523;BME280;31254;51.680;5.394;2023-04-08T04:28:58;102387.81;;;7.94;96.61
45523;BME280;31254;51.680;5.394;2023-04-08T04:31:26;102375.63;;;7.85;96.77
45523;BME280;31254;51.680;5.394;2023-04-08T04:33:55;102388.00;;;7.91;96.42
45523;BME280;31254;51.680;5.394;2023-04-08T04:36:22;102365.25;;;7.77;96.72
45523;BME280;31254;51.680;5.394;2023-04-08T04:38:51;102392.44;;;7.92;96.96
45523;BME280;31254;51.680;5.394;2023-04-08T04:41:19;102348.06;;;7.62;96.86
45523;BME280;31254;51.680;5.394;2023-04-08T04:43:47;102384.78;;;7.84;96.35
45523;BME280;31254;51.680;5.394;2023-04-08T04:46:16;102362.13;;;7.69;96.45
45523;BME280;31254;51.680;5.394;2023-04-08T04:48:48;102401.66;;;7.89;96.59
45523;BME280;31254;51.680;5.394;2023-04-08T04:51:18;102395.53;;;7.85;96.55
45523;BME280;31254;51.680;5.394;2023-04-08T04:53:48;102354.66;;;7.58;96.93
45523;BME280;31254;51.680;5.394;2023-04-08T04:56:15;102407.00;;;7.91;96.79
45523;BME280;31254;51.680;5.394;2023-04-08T04:58:42;102385.16;;;7.78;96.77
45523;BME280;31254;51.680;5.394;2023-04-08T05:01:14;102404.56;;;7.86;97.00
45523;BME280;31254;51.680;5.394;2023-04-08T05:03:46;102413.22;;;7.93;96.68
45523;BME280;31254;51.680;5.394;2023-04-08T05:06:13;102416.81;;;7.93;97.21
45523;BME280;31254;51.680;5.394;2023-04-08T05:08:41;102395.94;;;7.79;97.30
45523;BME280;31254;51.680;5.394;2023-04-08T05:11:09;102418.56;;;7.94;97.29
45523;BME280;31254;51.680;5.394;2023-04-08T05:13:39;102418.47;;;7.96;97.20
45523;BME280;31254;51.680;5.394;2023-04-08T05:16:08;102418.47;;;7.96;96.85
45523;BME280;31254;51.680;5.394;2023-04-08T05:18:35;102425.63;;;7.97;96.97
45523;BME280;31254;51.680;5.394;2023-04-08T05:21:05;102429.25;;;7.97;97.03
45523;BME280;31254;51.680;5.394;2023-04-08T05:23:34;102430.19;;;7.96;97.21
45523;BME280;31254;51.680;5.394;2023-04-08T05:26:01;102413.69;;;7.85;97.19
45523;BME280;31254;51.680;5.394;2023-04-08T05:28:28;102437.41;;;7.97;97.12
45523;BME280;31254;51.680;5.394;2023-04-08T05:30:55;102437.41;;;7.97;97.55
45523;BME280;31254;51.680;5.394;2023-04-08T05:33:22;102432.72;;;7.99;97.57
45523;BME280;31254;51.680;5.394;2023-04-08T05:35:51;102420.28;;;7.95;97.75
45523;BME280;31254;51.680;5.394;2023-04-08T05:38:20;102416.81;;;7.93;97.13
45523;BME280;31254;51.680;5.394;2023-04-08T05:40:47;102427.41;;;7.98;97.67
45523;BME280;31254;51.680;5.394;2023-04-08T05:43:16;102437.97;;;8.02;97.69
45523;BME280;31254;51.680;5.394;2023-04-08T05:45:43;102430.97;;;7.98;97.35
45523;BME280;31254;51.680;5.394;2023-04-08T05:48:10;102443.41;;;8.02;97.44
45523;BME280;31254;51.680;5.394;2023-04-08T05:50:37;102391.31;;;7.65;97.23
45523;BME280;31254;51.680;5.394;2023-04-08T05:53:06;102411.75;;;7.87;97.23
45523;BME280;31254;51.680;5.394;2023-04-08T05:55:35;102422.59;;;7.87;97.43
45523;BME280;31254;51.680;5.394;2023-04-08T05:58:24;102450.81;;;8.00;97.27
45523;BME280;31254;51.680;5.394;2023-04-08T06:00:54;102452.53;;;8.01;97.41
45523;BME280;31254;51.680;5.394;2023-04-08T06:03:21;102454.38;;;8.01;97.13
45523;BME280;31254;51.680;5.394;2023-04-08T06:05:48;102463.59;;;7.98;96.96
45523;BME280;31254;51.680;5.394;2023-04-08T06:08:15;102442.53;;;7.87;96.94
45523;BME280;31254;51.680;5.394;2023-04-08T06:10:51;102472.22;;;7.91;96.93
45523;BME280;31254;51.680;5.394;2023-04-08T06:13:18;102448.41;;;7.80;96.61
45523;BME280;31254;51.680;5.394;2023-04-08T06:15:47;102455.88;;;7.76;96.38
45523;BME280;31254;51.680;5.394;2023-04-08T06:18:16;102335.88;;;7.09;96.74
45523;BME280;31254;51.680;5.394;2023-04-08T06:20:43;102462.97;;;7.79;96.17
45523;BME280;31254;51.680;5.394;2023-04-08T06:23:10;102461.22;;;7.78;96.09
45523;BME280;31254;51.680;5.394;2023-04-08T06:25:37;102456.56;;;7.80;96.11
45523;BME280;31254;51.680;5.394;2023-04-08T06:28:03;102355.13;;;7.20;96.01
45523;BME280;31254;51.680;5.394;2023-04-08T06:30:30;102472.91;;;7.94;96.55
45523;BME280;31254;51.680;5.394;2023-04-08T06:32:57;102483.59;;;7.97;96.38
45523;BME280;31254;51.680;5.394;2023-04-08T06:35:27;102492.72;;;7.96;96.54
45523;BME280;31254;51.680;5.394;2023-04-08T06:38:01;102476.09;;;7.86;96.52
45523;BME280;31254;51.680;5.394;2023-04-08T06:40:28;102469.59;;;7.89;96.52
45523;BME280;31254;51.680;5.394;2023-04-08T06:42:58;102494.97;;;8.04;96.56
45523;BME280;31254;51.680;5.394;2023-04-08T06:45:25;102492.84;;;8.09;96.43
45523;BME280;31254;51.680;5.394;2023-04-08T06:47:51;102489.81;;;7.99;96.41
45523;BME280;31254;51.680;5.394;2023-04-08T06:50:18;102502.16;;;8.05;96.17
45523;BME280;31254;51.680;5.394;2023-04-08T06:52:48;102504.00;;;8.04;96.25
45523;BME280;31254;51.680;5.394;2023-04-08T06:55:18;102508.28;;;8.09;96.19
45523;BME280;31254;51.680;5.394;2023-04-08T06:57:45;102498.75;;;8.01;95.82
45523;BME280;31254;51.680;5.394;2023-04-08T07:00:12;102497.88;;;8.01;96.09
45523;BME280;31254;51.680;5.394;2023-04-08T07:02:39;102512.75;;;8.10;95.73
45523;BME280;31254;51.680;5.394;2023-04-08T07:05:09;102511.97;;;8.08;96.01
45523;BME280;31254;51.680;5.394;2023-04-08T07:07:36;102491.06;;;7.94;95.66
45523;BME280;31254;51.680;5.394;2023-04-08T07:10:08;102497.41;;;8.09;95.67
45523;BME280;31254;51.680;5.394;2023-04-08T07:12:36;102522.66;;;8.11;95.92
45523;BME280;31254;51.680;5.394;2023-04-08T07:15:03;102526.63;;;8.19;96.19
45523;BME280;31254;51.680;5.394;2023-04-08T07:17:30;102532.78;;;8.23;95.92
45523;BME280;31254;51.680;5.394;2023-04-08T07:19:57;102539.59;;;8.30;95.99
45523;BME280;31254;51.680;5.394;2023-04-08T07:22:24;102538.34;;;8.36;95.38
45523;BME280;31254;51.680;5.394;2023-04-08T07:24:51;102541.25;;;8.33;95.58
45523;BME280;31254;51.680;5.394;2023-04-08T07:27:18;102537.16;;;8.26;95.34
45523;BME280;31254;51.680;5.394;2023-04-08T07:29:45;102538.72;;;8.30;95.30
45523;BME280;31254;51.680;5.394;2023-04-08T07:32:11;102546.09;;;8.28;95.19
45523;BME280;31254;51.680;5.394;2023-04-08T07:34:44;102530.25;;;8.20;95.12
45523;BME280;31254;51.680;5.394;2023-04-08T07:37:10;102543.34;;;8.28;94.76
45523;BME280;31254;51.680;5.394;2023-04-08T07:39:37;102542.78;;;8.22;94.70
45523;BME280;31254;51.680;5.394;2023-04-08T07:42:04;102555.13;;;8.28;94.37
45523;BME280;31254;51.680;5.394;2023-04-08T07:44:38;102556.50;;;8.35;94.41
45523;BME280;31254;51.680;5.394;2023-04-08T07:47:09;102557.47;;;8.34;94.49
45523;BME280;31254;51.680;5.394;2023-04-08T07:49:48;102561.16;;;8.33;94.15
45523;BME280;31254;51.680;5.394;2023-04-08T07:52:19;102557.56;;;8.33;94.47
45523;BME280;31254;51.680;5.394;2023-04-08T07:54:47;102566.84;;;8.45;93.96
45523;BME280;31254;51.680;5.394;2023-04-08T07:57:20;102565.91;;;8.46;93.68
45523;BME280;31254;51.680;5.394;2023-04-08T07:59:49;102543.00;;;8.34;94.08
45523;BME280;31254;51.680;5.394;2023-04-08T08:02:15;102558.06;;;8.39;93.90
45523;BME280;31254;51.680;5.394;2023-04-08T08:04:45;102531.03;;;8.22;93.81
45523;BME280;31254;51.680;5.394;2023-04-08T08:07:11;102574.66;;;8.51;93.24
45523;BME280;31254;51.680;5.394;2023-04-08T08:09:38;102573.25;;;8.44;93.36
45523;BME280;31254;51.680;5.394;2023-04-08T08:12:05;102561.06;;;8.35;93.14
45523;BME280;31254;51.680;5.394;2023-04-08T08:14:32;102574.38;;;8.39;93.64
45523;BME280;31254;51.680;5.394;2023-04-08T08:16:59;102583.31;;;8.41;93.52
45523;BME280;31254;51.680;5.394;2023-04-08T08:19:26;102544.63;;;8.22;93.40
45523;BME280;31254;51.680;5.394;2023-04-08T08:21:56;102591.47;;;8.57;93.12
45523;BME280;31254;51.680;5.394;2023-04-08T08:24:23;102581.72;;;8.53;93.04
45523;BME280;31254;51.680;5.394;2023-04-08T08:26:53;102591.38;;;8.73;93.39
45523;BME280;31254;51.680;5.394;2023-04-08T08:29:20;102574.16;;;8.73;92.67
45523;BME280;31254;51.680;5.394;2023-04-08T08:31:47;102585.38;;;8.68;92.66
45523;BME280;31254;51.680;5.394;2023-04-08T08:34:14;102590.50;;;8.73;92.79
45523;BME280;31254;51.680;5.394;2023-04-08T08:36:43;102569.41;;;8.62;92.24
45523;BME280;31254;51.680;5.394;2023-04-08T08:39:12;102601.19;;;8.76;92.26
45523;BME280;31254;51.680;5.394;2023-04-08T08:41:38;102587.38;;;8.79;92.46
45523;BME280;31254;51.680;5.394;2023-04-08T08:44:07;102599.38;;;8.91;92.11
45523;BME280;31254;51.680;5.394;2023-04-08T08:46:36;102598.78;;;9.00;92.24
45523;BME280;31254;51.680;5.394;2023-04-08T08:49:07;102597.53;;;9.06;91.57
45523;BME280;31254;51.680;5.394;2023-04-08T08:51:34;102602.59;;;9.12;91.49
45523;BME280;31254;51.680;5.394;2023-04-08T08:54:02;102612.97;;;9.20;91.03
45523;BME280;31254;51.680;5.394;2023-04-08T08:56:32;102614.34;;;9.12;91.12
45523;BME280;31254;51.680;5.394;2023-04-08T08:58:59;102612.19;;;9.18;91.03
45523;BME280;31254;51.680;5.394;2023-04-08T09:01:33;102614.53;;;9.24;90.82
45523;BME280;31254;51.680;5.394;2023-04-08T09:04:13;102617.25;;;9.24;90.40
45523;BME280;31254;51.680;5.394;2023-04-08T09:06:48;102613.53;;;9.25;90.34
45523;BME280;31254;51.680;5.394;2023-04-08T09:09:20;102624.16;;;9.29;90.96
45523;BME280;31254;51.680;5.394;2023-04-08T09:11:46;102615.97;;;9.29;90.75
45523;BME280;31254;51.680;5.394;2023-04-08T09:14:23;102626.28;;;9.39;90.94
45523;BME280;31254;51.680;5.394;2023-04-08T09:16:51;102623.84;;;9.48;90.26
45523;BME280;31254;51.680;5.394;2023-04-08T09:19:18;102625.59;;;9.64;89.50
45523;BME280;31254;51.680;5.394;2023-04-08T09:21:47;102633.22;;;9.72;89.36
45523;BME280;31254;51.680;5.394;2023-04-08T09:24:30;102629.41;;;9.88;88.61
45523;BME280;31254;51.680;5.394;2023-04-08T09:26:57;102630.72;;;10.23;87.70
45523;BME280;31254;51.680;5.394;2023-04-08T09:29:24;102631.94;;;10.59;86.36
45523;BME280;31254;51.680;5.394;2023-04-08T09:31:59;102625.19;;;10.65;85.45
45523;BME280;31254;51.680;5.394;2023-04-08T09:34:28;102597.56;;;10.69;85.59
45523;BME280;31254;51.680;5.394;2023-04-08T09:36:56;102587.50;;;10.57;86.04
45523;BME280;31254;51.680;5.394;2023-04-08T09:39:23;102612.72;;;10.60;86.16
45523;BME280;31254;51.680;5.394;2023-04-08T09:41:50;102627.81;;;10.79;85.90
45523;BME280;31254;51.680;5.394;2023-04-08T09:44:21;102623.56;;;10.88;85.44
45523;BME280;31254;51.680;5.394;2023-04-08T09:47:05;102617.56;;;10.95;85.12
45523;BME280;31254;51.680;5.394;2023-04-08T09:49:45;102632.72;;;11.12;84.63
45523;BME280;31254;51.680;5.394;2023-04-08T09:55:02;102600.25;;;11.33;84.06
45523;BME280;31254;51.680;5.394;2023-04-08T10:00:12;102644.25;;;11.55;83.83
45523;BME280;31254;51.680;5.394;2023-04-08T10:05:20;102647.69;;;11.32;84.62
45523;BME280;31254;51.680;5.394;2023-04-08T10:07:52;102646.56;;;11.48;83.98
45523;BME280;31254;51.680;5.394;2023-04-08T10:10:22;102609.13;;;11.24;83.23
45523;BME280;31254;51.680;5.394;2023-04-08T10:12:55;102639.19;;;11.61;83.19
45523;BME280;31254;51.680;5.394;2023-04-08T10:17:55;102644.66;;;11.61;82.99
45523;BME280;31254;51.680;5.394;2023-04-08T10:20:58;102642.28;;;11.69;82.99
45523;BME280;31254;51.680;5.394;2023-04-08T10:23:52;102648.09;;;11.89;82.42
45523;BME280;31254;51.680;5.394;2023-04-08T10:26:32;102650.78;;;11.78;82.29
45523;BME280;31254;51.680;5.394;2023-04-08T10:31:53;102630.63;;;11.92;81.96
45523;BME280;31254;51.680;5.394;2023-04-08T10:34:23;102632.13;;;12.44;80.62
45523;BME280;31254;51.680;5.394;2023-04-08T10:36:57;102633.56;;;12.72;79.77
45523;BME280;31254;51.680;5.394;2023-04-08T10:39:26;102627.59;;;12.78;79.60
45523;BME280;31254;51.680;5.394;2023-04-08T10:41:53;102608.16;;;12.70;79.44
45523;BME280;31254;51.680;5.394;2023-04-08T10:44:22;102613.69;;;12.93;78.92
45523;BME280;31254;51.680;5.394;2023-04-08T10:46:53;102610.69;;;12.85;79.14
45523;BME280;31254;51.680;5.394;2023-04-08T10:49:31;102609.53;;;12.76;79.09
45523;BME280;31254;51.680;5.394;2023-04-08T10:51:59;102579.72;;;12.49;79.18
45523;BME280;31254;51.680;5.394;2023-04-08T10:54:26;102598.56;;;12.65;78.89
45523;BME280;31254;51.680;5.394;2023-04-08T10:56:54;102614.31;;;13.08;77.94
45523;BME280;31254;51.680;5.394;2023-04-08T10:59:29;102609.22;;;13.14;77.25
45523;BME280;31254;51.680;5.394;2023-04-08T11:02:00;102607.72;;;13.44;76.98
45523;BME280;31254;51.680;5.394;2023-04-08T11:04:29;102603.00;;;13.46;76.94
45523;BME280;31254;51.680;5.394;2023-04-08T11:07:04;102606.75;;;13.45;77.09
45523;BME280;31254;51.680;5.394;2023-04-08T11:09:35;102599.38;;;13.57;76.75
45523;BME280;31254;51.680;5.394;2023-04-08T11:12:03;102571.59;;;13.50;76.31
45523;BME280;31254;51.680;5.394;2023-04-08T11:14:30;102591.25;;;13.56;75.89
45523;BME280;31254;51.680;5.394;2023-04-08T11:16:59;102606.13;;;13.42;76.00
45523;BME280;31254;51.680;5.394;2023-04-08T11:19:28;102607.09;;;13.29;75.42
45523;BME280;31254;51.680;5.394;2023-04-08T11:21:58;102605.25;;;13.30;75.34
45523;BME280;31254;51.680;5.394;2023-04-08T11:24:27;102601.41;;;13.32;75.42
45523;BME280;31254;51.680;5.394;2023-04-08T11:26:55;102597.03;;;13.52;74.96
45523;BME280;31254;51.680;5.394;2023-04-08T11:29:23;102597.53;;;13.58;74.83
45523;BME280;31254;51.680;5.394;2023-04-08T11:31:51;102597.13;;;13.74;74.46
45523;BME280;31254;51.680;5.394;2023-04-08T11:34:22;102603.59;;;13.73;73.77
45523;BME280;31254;51.680;5.394;2023-04-08T11:36:50;102593.53;;;13.94;73.55
45523;BME280;31254;51.680;5.394;2023-04-08T11:39:24;102583.72;;;13.92;73.07
45523;BME280;31254;51.680;5.394;2023-04-08T11:41:51;102599.34;;;14.12;73.39
45523;BME280;31254;51.680;5.394;2023-04-08T11:44:18;102578.72;;;13.97;72.57
45523;BME280;31254;51.680;5.394;2023-04-08T11:46:51;102594.50;;;14.16;72.36
45523;BME280;31254;51.680;5.394;2023-04-08T11:49:22;102599.44;;;14.22;72.43
45523;BME280;31254;51.680;5.394;2023-04-08T11:51:57;102596.63;;;14.01;72.32
45523;BME280;31254;51.680;5.394;2023-04-08T11:54:28;102590.28;;;14.00;72.09
45523;BME280;31254;51.680;5.394;2023-04-08T11:56:55;102588.03;;;14.05;71.73
45523;BME280;31254;51.680;5.394;2023-04-08T11:59:24;102580.00;;;14.14;71.10
45523;BME280;31254;51.680;5.394;2023-04-08T12:01:54;102585.84;;;14.20;70.65
45523;BME280;31254;51.680;5.394;2023-04-08T12:04:21;102577.16;;;14.36;69.92
45523;BME280;31254;51.680;5.394;2023-04-08T12:06:48;102573.97;;;14.73;69.10
45523;BME280;31254;51.680;5.394;2023-04-08T12:09:17;102574.22;;;14.91;69.09
45523;BME280;31254;51.680;5.394;2023-04-08T12:11:47;102582.34;;;15.33;67.92
45523;BME280;31254;51.680;5.394;2023-04-08T12:14:13;102581.59;;;15.22;66.86
45523;BME280;31254;51.680;5.394;2023-04-08T12:16:40;102538.03;;;14.86;67.60
45523;BME280;31254;51.680;5.394;2023-04-08T12:19:07;102593.78;;;15.39;66.94
45523;BME280;31254;51.680;5.394;2023-04-08T12:21:35;102578.28;;;15.28;66.71
45523;BME280;31254;51.680;5.394;2023-04-08T12:24:02;102576.31;;;15.09;65.47
45523;BME280;31254;51.680;5.394;2023-04-08T12:26:28;102577.94;;;15.11;65.93
45523;BME280;31254;51.680;5.394;2023-04-08T12:28:57;102577.41;;;15.27;65.62
45523;BME280;31254;51.680;5.394;2023-04-08T12:31:26;102590.03;;;15.40;65.00
45523;BME280;31254;51.680;5.394;2023-04-08T12:33:53;102580.72;;;15.21;64.71
45523;BME280;31254;51.680;5.394;2023-04-08T12:36:20;102581.59;;;15.22;64.59
45523;BME280;31254;51.680;5.394;2023-04-08T12:38:52;102581.19;;;15.26;63.95
45523;BME280;31254;51.680;5.394;2023-04-08T12:41:19;102576.03;;;15.43;63.21
45523;BME280;31254;51.680;5.394;2023-04-08T12:43:45;102576.06;;;15.62;62.72
45523;BME280;31254;51.680;5.394;2023-04-08T12:46:12;102580.22;;;15.97;61.69
45523;BME280;31254;51.680;5.394;2023-04-08T12:48:39;102569.91;;;16.38;61.03
45523;BME280;31254;51.680;5.394;2023-04-08T12:51:06;102540.00;;;16.63;59.47
45523;BME280;31254;51.680;5.394;2023-04-08T12:53:35;102561.50;;;16.50;59.48
45523;BME280;31254;51.680;5.394;2023-04-08T12:56:02;102547.31;;;16.35;59.59
45523;BME280;31254;51.680;5.394;2023-04-08T12:58:29;102566.75;;;16.14;59.39
45523;BME280;31254;51.680;5.394;2023-04-08T13:00:55;102566.75;;;16.14;59.89
45523;BME280;31254;51.680;5.394;2023-04-08T13:03:22;102553.13;;;16.12;59.79
45523;BME280;31254;51.680;5.394;2023-04-08T13:05:51;102553.28;;;15.91;59.88
45523;BME280;31254;51.680;5.394;2023-04-08T13:08:20;102558.50;;;15.94;60.76
45523;BME280;31254;51.680;5.394;2023-04-08T13:10:47;102549.78;;;15.79;60.91
45523;BME280;31254;51.680;5.394;2023-04-08T13:13:16;102552.59;;;15.58;59.63
45523;BME280;31254;51.680;5.394;2023-04-08T13:15:45;102553.47;;;15.59;59.70
45523;BME280;31254;51.680;5.394;2023-04-08T13:18:13;102547.53;;;15.53;60.02
45523;BME280;31254;51.680;5.394;2023-04-08T13:20:42;102553.19;;;15.52;59.68
45523;BME280;31254;51.680;5.394;2023-04-08T13:23:09;102550.84;;;15.47;59.58
45523;BME280;31254;51.680;5.394;2023-04-08T13:25:35;102537.97;;;15.48;59.54
45523;BME280;31254;51.680;5.394;2023-04-08T13:28:04;102545.81;;;15.62;59.80
45523;BME280;31254;51.680;5.394;2023-04-08T13:30:31;102548.41;;;15.64;59.19